createdAt,value
2022-11-03T00:01:35.986Z,100828.38
2022-11-03T00:04:03.783Z,100820.53
2022-11-03T00:06:31.553Z,100816.91
2022-11-03T00:09:00.111Z,100811.91
2022-11-03T00:11:28.081Z,100805.09
2022-11-03T00:13:55.978Z,100803.28
2022-11-03T00:16:23.577Z,100801.66
2022-11-03T00:18:52.684Z,100801.84
2022-11-03T00:21:20.701Z,100803.41
2022-11-03T00:23:48.405Z,100795.47
2022-11-03T00:26:17.304Z,100803.16
2022-11-03T00:28:46.757Z,100791.94
2022-11-03T00:31:16.840Z,100781.56
2022-11-03T00:33:44.943Z,100779.03
2022-11-03T00:36:15.931Z,100781.69
2022-11-03T00:38:45.378Z,100774.78
2022-11-03T00:41:14.260Z,100772.16
2022-11-03T00:43:42.325Z,100765.34
2022-11-03T00:46:11.125Z,100766.22
2022-11-03T00:48:39.707Z,100767.31
2022-11-03T00:51:10.149Z,100762.31
2022-11-03T00:53:41.231Z,100763.34
2022-11-03T00:56:11.623Z,100768.56
2022-11-03T00:58:39.234Z,100765.13
2022-11-03T01:01:08.920Z,100752.75
2022-11-03T01:03:38.309Z,100752.94
2022-11-03T01:06:26.314Z,100752.84
2022-11-03T01:08:55.924Z,100756.28
2022-11-03T01:11:42.913Z,100753.72
2022-11-03T01:14:11.379Z,100752.03
2022-11-03T01:16:39.247Z,100750.53
2022-11-03T01:19:07.345Z,100741.00
2022-11-03T01:21:35.241Z,100744.50
2022-11-03T01:24:05.560Z,100743.72
2022-11-03T01:26:34.013Z,100739.28
2022-11-03T01:29:02.128Z,100736.78
2022-11-03T01:31:30.032Z,100746.44
2022-11-03T01:33:58.475Z,100748.31
2022-11-03T01:36:26.884Z,100735.31
2022-11-03T01:38:55.908Z,100737.97
2022-11-03T01:41:28.197Z,100734.50
2022-11-03T01:44:28.370Z,100733.69
2022-11-03T01:47:00.688Z,100725.13
2022-11-03T01:49:34.785Z,100722.59
2022-11-03T01:52:07.673Z,100718.31
2022-11-03T01:54:38.072Z,100713.25
2022-11-03T01:57:12.540Z,100700.19
2022-11-03T01:59:40.983Z,100707.09
2022-11-03T02:02:09.002Z,100698.50
2022-11-03T02:04:37.035Z,100699.41
2022-11-03T02:07:15.640Z,100690.81
2022-11-03T02:09:43.473Z,100685.53
2022-11-03T02:12:13.481Z,100686.59
2022-11-03T02:14:44.978Z,100683.47
2022-11-03T02:17:15.356Z,100680.13
2022-11-03T02:19:47.941Z,100669.13
2022-11-03T02:22:43.993Z,100666.53
2022-11-03T02:25:18.941Z,100667.34
2022-11-03T02:27:48.005Z,100664.75
2022-11-03T02:30:15.829Z,100652.59
2022-11-03T02:32:52.425Z,100658.66
2022-11-03T02:35:25.994Z,100652.69
2022-11-03T02:37:59.268Z,100644.00
2022-11-03T02:40:30.726Z,100645.78
2022-11-03T02:43:01.726Z,100648.25
2022-11-03T02:45:31.118Z,100647.53
2022-11-03T02:48:01.108Z,100643.13
2022-11-03T02:50:30.579Z,100635.53
2022-11-03T02:52:58.791Z,100626.78
2022-11-03T02:55:35.225Z,100613.97
2022-11-03T02:58:11.582Z,100614.88
2022-11-03T03:00:44.379Z,100615.63
2022-11-03T03:03:17.887Z,100606.09
2022-11-03T03:05:47.004Z,100614.72
2022-11-03T03:08:15.768Z,100609.56
2022-11-03T03:10:46.110Z,100612.81
2022-11-03T03:13:18.004Z,100599.94
2022-11-03T03:15:52.466Z,100591.34
2022-11-03T03:18:25.399Z,100593.84
2022-11-03T03:20:58.103Z,100584.25
2022-11-03T03:23:28.281Z,100580.00
2022-11-03T03:26:02.184Z,100581.00
2022-11-03T03:28:37.170Z,100579.16
2022-11-03T03:31:09.210Z,100578.47
2022-11-03T03:33:42.044Z,100585.50
2022-11-03T03:36:16.719Z,100576.84
2022-11-03T03:38:49.736Z,100574.19
2022-11-03T03:41:21.944Z,100560.25
2022-11-03T03:43:54.502Z,100568.06
2022-11-03T03:46:24.229Z,100563.91
2022-11-03T03:48:51.993Z,100561.47
2022-11-03T03:51:23.772Z,100562.50
2022-11-03T03:53:52.297Z,100554.69
2022-11-03T03:56:24.612Z,100558.19
2022-11-03T03:58:53.836Z,100551.97
2022-11-03T04:01:21.722Z,100549.38
2022-11-03T04:03:49.556Z,100544.72
2022-11-03T04:06:17.244Z,100553.69
2022-11-03T04:08:44.918Z,100552.94
2022-11-03T04:11:30.185Z,100549.47
2022-11-03T04:14:17.069Z,100544.44
2022-11-03T04:17:02.577Z,100540.97
2022-11-03T04:19:47.881Z,100531.69
2022-11-03T04:22:18.281Z,100529.06
2022-11-03T04:24:47.270Z,100524.81
2022-11-03T04:27:30.105Z,100525.88
2022-11-03T04:30:08.913Z,100523.25
2022-11-03T04:32:37.736Z,100518.25
2022-11-03T04:35:15.881Z,100523.25
2022-11-03T04:37:46.513Z,100518.75
2022-11-03T04:40:17.398Z,100526.63
2022-11-03T04:42:45.820Z,100523.19
2022-11-03T04:45:23.266Z,100517.38
2022-11-03T04:47:51.196Z,100516.31
2022-11-03T04:50:20.721Z,100523.50
2022-11-03T04:52:48.773Z,100520.00
2022-11-03T04:55:18.269Z,100522.34
2022-11-03T04:57:46.237Z,100523.38
2022-11-03T05:00:20.526Z,100509.47
2022-11-03T05:02:53.195Z,100507.44
2022-11-03T05:05:25.716Z,100504.16
2022-11-03T05:07:55.704Z,100510.91
2022-11-03T05:10:26.945Z,100514.03
2022-11-03T05:12:56.241Z,100500.41
2022-11-03T05:15:30.939Z,100500.63
2022-11-03T05:18:02.277Z,100491.59
2022-11-03T05:20:36.267Z,100483.06
2022-11-03T05:23:05.667Z,100484.53
2022-11-03T05:25:40.218Z,100483.38
2022-11-03T05:28:21.636Z,100480.56
2022-11-03T05:30:51.543Z,100477.88
2022-11-03T05:33:25.270Z,100467.63
2022-11-03T05:35:54.349Z,100462.38
2022-11-03T05:38:23.947Z,100447.59
2022-11-03T05:40:53.517Z,100440.59
2022-11-03T05:43:22.358Z,100436.09
2022-11-03T05:45:54.813Z,100436.78
2022-11-03T05:48:30.891Z,100433.28
2022-11-03T05:51:00.362Z,100434.25
2022-11-03T05:53:31.376Z,100427.53
2022-11-03T05:56:03.240Z,100429.38
2022-11-03T05:58:35.877Z,100433.03
2022-11-03T06:01:11.311Z,100427.22
2022-11-03T06:03:39.701Z,100420.66
2022-11-03T06:06:16.643Z,100420.94
2022-11-03T06:08:46.034Z,100417.06
2022-11-03T06:11:22.272Z,100414.66
2022-11-03T06:13:49.946Z,100415.59
2022-11-03T06:16:33.361Z,100419.81
2022-11-03T06:19:02.617Z,100413.63
2022-11-03T06:21:31.634Z,100413.31
2022-11-03T06:24:00.419Z,100406.19
2022-11-03T06:26:29.717Z,100418.19
2022-11-03T06:28:57.580Z,100412.03
2022-11-03T06:31:29.176Z,100409.47
2022-11-03T06:33:59.353Z,100408.59
2022-11-03T06:36:31.613Z,100409.47
2022-11-03T06:39:03.004Z,100405.16
2022-11-03T06:41:33.299Z,100397.41
2022-11-03T06:44:03.746Z,100399.22
2022-11-03T06:46:33.942Z,100398.44
2022-11-03T06:49:04.229Z,100402.66
2022-11-03T06:51:36.084Z,100405.16
2022-11-03T06:54:10.314Z,100395.47
2022-11-03T06:56:38.563Z,100386.75
2022-11-03T06:59:11.922Z,100392.66
2022-11-03T07:01:41.374Z,100379.28
2022-11-03T07:04:17.313Z,100372.91
2022-11-03T07:06:52.774Z,100356.31
2022-11-03T07:09:24.110Z,100354.44
2022-11-03T07:11:58.585Z,100350.06
2022-11-03T07:14:29.241Z,100346.53
2022-11-03T07:17:01.279Z,100352.50
2022-11-03T07:19:31.800Z,100352.41
2022-11-03T07:22:01.338Z,100354.88
2022-11-03T07:24:32.012Z,100357.31
2022-11-03T07:27:03.434Z,100358.97
2022-11-03T07:29:32.399Z,100353.66
2022-11-03T07:32:01.664Z,100344.75
2022-11-03T07:34:33.573Z,100352.16
2022-11-03T07:37:01.756Z,100345.91
2022-11-03T07:39:35.916Z,100342.13
2022-11-03T07:42:04.857Z,100332.41
2022-11-03T07:44:32.574Z,100323.66
2022-11-03T07:47:01.994Z,100322.69
2022-11-03T07:49:31.240Z,100319.13
2022-11-03T07:52:00.776Z,100320.09
2022-11-03T07:54:31.249Z,100314.75
2022-11-03T07:57:01.123Z,100310.25
2022-11-03T07:59:32.806Z,100296.94
2022-11-03T08:02:04.053Z,100291.66
2022-11-03T08:04:35.336Z,100286.47
2022-11-03T08:07:02.977Z,100282.13
2022-11-03T08:09:30.888Z,100287.44
2022-11-03T08:11:58.545Z,100282.34
2022-11-03T08:14:26.169Z,100266.75
2022-11-03T08:16:53.818Z,100260.53
2022-11-03T08:19:23.045Z,100263.97
2022-11-03T08:21:50.803Z,100256.91
2022-11-03T08:24:18.556Z,100256.69
2022-11-03T08:26:46.708Z,100264.13
2022-11-03T08:29:14.501Z,100255.28
2022-11-03T08:31:42.257Z,100242.03
2022-11-03T08:34:10.733Z,100245.00
2022-11-03T08:36:39.833Z,100242.72
2022-11-03T08:39:08.062Z,100238.34
2022-11-03T08:41:35.808Z,100250.97
2022-11-03T08:44:04.078Z,100250.75
2022-11-03T08:46:31.714Z,100244.00
2022-11-03T08:48:59.566Z,100246.22
2022-11-03T08:51:27.250Z,100236.31
2022-11-03T08:53:56.449Z,100227.28
2022-11-03T08:56:24.234Z,100227.19
2022-11-03T08:58:51.969Z,100228.25
2022-11-03T09:01:19.836Z,100238.09
2022-11-03T09:03:47.587Z,100229.09
2022-11-03T09:06:15.266Z,100221.91
2022-11-03T09:11:31.865Z,100211.00
2022-11-03T09:13:59.491Z,100208.00
2022-11-03T09:16:27.316Z,100205.47
2022-11-03T09:18:55.588Z,100200.00
2022-11-03T09:21:23.305Z,100193.75
2022-11-03T09:23:50.988Z,100197.19
2022-11-03T09:26:18.880Z,100196.34
2022-11-03T09:28:49.303Z,100193.75
2022-11-03T09:31:17.052Z,100184.19
2022-11-03T09:33:44.639Z,100175.41
2022-11-03T09:36:12.604Z,100173.16
2022-11-03T09:38:40.308Z,100164.56
2022-11-03T09:41:18.751Z,100155.38
2022-11-03T09:43:58.385Z,100155.19
2022-11-03T09:46:26.931Z,100140.88
2022-11-03T09:48:56.321Z,100147.94
2022-11-03T09:51:26.536Z,100142.63
2022-11-03T09:53:55.087Z,100136.38
2022-11-03T09:56:26.012Z,100132.56
2022-11-03T09:58:54.766Z,100117.38
2022-11-03T10:01:25.907Z,100101.03
2022-11-03T10:04:01.954Z,100092.03
2022-11-03T10:06:30.623Z,100105.47
2022-11-03T10:08:58.417Z,100111.59
2022-11-03T10:11:26.088Z,100108.91
2022-11-03T10:13:57.449Z,100090.47
2022-11-03T10:16:27.321Z,100082.53
2022-11-03T10:18:55.408Z,100079.31
2022-11-03T10:21:28.246Z,100079.56
2022-11-03T10:23:55.967Z,100076.22
2022-11-03T10:26:23.877Z,100062.97
2022-11-03T10:29:04.468Z,100077.97
2022-11-03T10:31:35.757Z,100069.78
2022-11-03T10:34:04.518Z,100071.47
2022-11-03T10:36:33.932Z,100066.88
2022-11-03T10:39:26.147Z,100050.16
2022-11-03T10:41:58.482Z,100052.63
2022-11-03T10:44:28.045Z,100049.72
2022-11-03T10:47:01.453Z,100027.41
2022-11-03T10:49:30.475Z,100015.09
2022-11-03T10:52:23.485Z,100005.13
2022-11-03T10:54:53.629Z,99998.91
2022-11-03T10:57:22.577Z,99995.69
2022-11-03T10:59:53.045Z,99980.00
2022-11-03T11:02:24.745Z,99982.69
2022-11-03T11:04:57.420Z,99979.00
2022-11-03T11:07:30.347Z,99982.50
2022-11-03T11:10:05.962Z,99978.81
2022-11-03T11:12:33.720Z,99971.31
2022-11-03T11:15:07.120Z,99962.47
2022-11-03T11:17:45.429Z,99959.94
2022-11-03T11:20:38.059Z,99954.66
2022-11-03T11:23:59.106Z,99956.31
2022-11-03T11:26:36.014Z,99937.50
2022-11-03T11:29:46.048Z,99938.84
2022-11-03T11:32:50.104Z,99936.66
2022-11-03T11:36:06.427Z,99950.78
2022-11-03T11:39:11.483Z,99947.16
2022-11-03T11:42:12.444Z,99941.94
2022-11-03T11:44:54.840Z,99933.56
2022-11-03T11:47:35.048Z,99939.84
2022-11-03T11:50:31.895Z,99932.34
2022-11-03T11:53:10.887Z,99921.44
2022-11-03T11:55:43.649Z,99915.19
2022-11-03T11:58:27.705Z,99907.53
2022-11-03T12:01:00.957Z,99897.34
2022-11-03T12:03:34.883Z,99886.69
2022-11-03T12:06:04.272Z,99874.50
2022-11-03T12:08:32.877Z,99871.38
2022-11-03T12:11:02.931Z,99876.13
2022-11-03T12:13:48.308Z,99860.47
2022-11-03T12:16:36.610Z,99850.97
2022-11-03T12:19:39.856Z,99837.78
2022-11-03T12:22:11.026Z,99838.22
2022-11-03T12:24:50.559Z,99839.53
2022-11-03T12:27:38.407Z,99828.91
2022-11-03T12:30:12.462Z,99828.81
2022-11-03T12:32:40.831Z,99829.94
2022-11-03T12:35:10.389Z,99828.94
2022-11-03T12:37:39.407Z,99830.91
2022-11-03T12:40:08.543Z,99817.66
2022-11-03T12:42:36.212Z,99810.56
2022-11-03T12:45:04.144Z,99796.69
2022-11-03T12:47:32.761Z,99802.09
2022-11-03T12:50:00.422Z,99803.13
2022-11-03T12:52:28.033Z,99790.47
2022-11-03T12:54:57.075Z,99790.66
2022-11-03T12:57:24.845Z,99786.63
2022-11-03T12:59:52.555Z,99774.69
2022-11-03T13:02:20.269Z,99783.44
2022-11-03T13:04:48.000Z,99772.06
2022-11-03T13:07:19.143Z,99752.84
2022-11-03T13:09:49.922Z,99747.38
2022-11-03T13:12:35.221Z,99745.22
2022-11-03T13:15:05.353Z,99733.81
2022-11-03T13:17:45.938Z,99726.84
2022-11-03T13:20:21.881Z,99714.84
2022-11-03T13:22:49.729Z,99702.00
2022-11-03T13:25:17.651Z,99701.81
2022-11-03T13:27:47.016Z,99695.97
2022-11-03T13:30:14.791Z,99693.47
2022-11-03T13:32:42.844Z,99682.47
2022-11-03T13:35:13.771Z,99667.53
2022-11-03T13:37:42.382Z,99646.97
2022-11-03T13:40:29.228Z,99637.25
2022-11-03T13:43:00.343Z,99643.03
2022-11-03T13:45:28.396Z,99638.81
2022-11-03T13:48:48.498Z,99631.66
2022-11-03T13:50:45.469Z,99624.69
2022-11-03T13:56:05.799Z,99618.25
2022-11-03T14:01:25.853Z,99613.38
2022-11-03T14:06:41.860Z,99626.50
2022-11-03T14:09:10.281Z,99622.88
2022-11-03T14:11:55.397Z,99616.84
2022-11-03T14:14:25.069Z,99592.28
2022-11-03T14:16:52.780Z,99585.56
2022-11-03T14:19:21.292Z,99580.34
2022-11-03T14:21:48.902Z,99574.22
2022-11-03T14:24:16.549Z,99581.94
2022-11-03T14:26:44.331Z,99578.41
2022-11-03T14:29:12.043Z,99577.34
2022-11-03T14:31:41.217Z,99577.41
2022-11-03T14:34:08.932Z,99552.75
2022-11-03T14:36:37.112Z,99554.59
2022-11-03T14:39:05.043Z,99553.59
2022-11-03T14:41:50.139Z,99555.81
2022-11-03T14:44:17.760Z,99556.91
2022-11-03T14:46:46.741Z,99549.81
2022-11-03T14:49:14.846Z,99547.22
2022-11-03T14:51:42.974Z,99538.50
2022-11-03T14:54:11.219Z,99542.19
2022-11-03T14:56:38.922Z,99539.72
2022-11-03T14:59:07.085Z,99528.53
2022-11-03T15:01:36.665Z,99526.00
2022-11-03T15:04:06.940Z,99518.50
2022-11-03T15:06:34.929Z,99522.84
2022-11-03T15:09:03.228Z,99517.53
2022-11-03T15:11:31.041Z,99525.53
2022-11-03T15:13:58.718Z,99527.50
2022-11-03T15:16:26.399Z,99516.16
2022-11-03T15:18:54.052Z,99528.69
2022-11-03T15:21:23.069Z,99508.81
2022-11-03T15:26:38.641Z,99523.84
2022-11-03T15:29:06.940Z,99495.28
2022-11-03T15:31:34.989Z,99503.28
2022-11-03T15:34:06.091Z,99505.25
2022-11-03T15:36:37.835Z,99502.97
2022-11-03T15:39:05.432Z,99506.88
2022-11-03T15:41:33.050Z,99486.63
2022-11-03T15:44:00.641Z,99477.78
2022-11-03T15:46:28.492Z,99480.59
2022-11-03T15:48:57.422Z,99470.25
2022-11-03T15:51:25.234Z,99463.94
2022-11-03T15:53:58.484Z,99459.50
2022-11-03T15:56:26.693Z,99455.19
2022-11-03T15:58:54.387Z,99443.88
2022-11-03T16:01:22.165Z,99436.25
2022-11-03T16:03:49.945Z,99430.34
2022-11-03T16:06:17.581Z,99422.16
2022-11-03T16:08:45.270Z,99412.72
2022-11-03T16:11:14.461Z,99410.38
2022-11-03T16:13:42.226Z,99407.84
2022-11-03T16:16:09.848Z,99406.94
2022-11-03T16:18:38.119Z,99403.41
2022-11-03T16:21:06.393Z,99406.00
2022-11-03T16:23:34.158Z,99400.63
2022-11-03T16:26:04.357Z,99402.31
2022-11-03T16:28:33.929Z,99391.97
2022-11-03T16:31:01.716Z,99393.00
2022-11-03T16:33:29.389Z,99405.06
2022-11-03T16:35:57.155Z,99408.44
2022-11-03T16:38:24.844Z,99408.81
2022-11-03T16:40:52.538Z,99403.69
2022-11-03T16:43:20.237Z,99396.97
2022-11-03T16:45:49.278Z,99388.34
2022-11-03T16:48:17.826Z,99380.38
2022-11-03T16:50:45.473Z,99372.56
2022-11-03T16:53:13.218Z,99368.47
2022-11-03T16:55:40.891Z,99371.63
2022-11-03T16:58:08.582Z,99363.16
2022-11-03T17:00:36.356Z,99352.56
2022-11-03T17:03:05.781Z,99348.28
2022-11-03T17:05:33.713Z,99337.06
2022-11-03T17:08:01.474Z,99323.94
2022-11-03T17:10:31.744Z,99305.72
2022-11-03T17:12:59.694Z,99293.53
2022-11-03T17:15:27.340Z,99285.94
2022-11-03T17:17:55.023Z,99276.72
2022-11-03T17:20:24.304Z,99291.13
2022-11-03T17:22:52.134Z,99278.69
2022-11-03T17:25:22.585Z,99274.97
2022-11-03T17:27:53.407Z,99274.69
2022-11-03T17:30:22.927Z,99272.00
2022-11-03T17:32:54.109Z,99277.22
2022-11-03T17:35:29.384Z,99269.22
2022-11-03T17:37:57.277Z,99266.50
2022-11-03T17:40:26.864Z,99266.50
2022-11-03T17:42:54.682Z,99247.34
2022-11-03T17:45:24.122Z,99253.66
2022-11-03T17:47:52.157Z,99239.81
2022-11-03T17:50:21.911Z,99238.91
2022-11-03T17:52:52.553Z,99245.88
2022-11-03T17:55:26.173Z,99241.06
2022-11-03T17:57:55.292Z,99227.84
2022-11-03T18:00:23.395Z,99229.63
2022-11-03T18:02:52.139Z,99231.19
2022-11-03T18:05:26.699Z,99223.28
2022-11-03T18:07:56.509Z,99224.97
2022-11-03T18:10:27.420Z,99227.66
2022-11-03T18:13:15.085Z,99221.72
2022-11-03T18:15:44.165Z,99237.34
2022-11-03T18:18:18.667Z,99252.94
2022-11-03T18:20:53.578Z,99254.88
2022-11-03T18:23:24.861Z,99266.88
2022-11-03T18:25:53.220Z,99256.19
2022-11-03T18:28:21.022Z,99244.78
2022-11-03T18:30:50.610Z,99248.31
2022-11-03T18:33:23.179Z,99250.81
2022-11-03T18:35:51.060Z,99236.78
2022-11-03T18:38:19.098Z,99223.13
2022-11-03T18:40:48.237Z,99214.47
2022-11-03T18:43:19.386Z,99201.88
2022-11-03T18:45:47.402Z,99192.31
2022-11-03T18:48:19.394Z,99193.13
2022-11-03T18:50:49.296Z,99180.97
2022-11-03T18:53:20.207Z,99173.34
2022-11-03T18:55:50.150Z,99163.13
2022-11-03T18:58:20.248Z,99156.25
2022-11-03T19:00:48.232Z,99150.22
2022-11-03T19:03:18.681Z,99142.41
2022-11-03T19:05:49.542Z,99133.69
2022-11-03T19:08:21.967Z,99128.59
2022-11-03T19:10:51.876Z,99129.31
2022-11-03T19:13:27.946Z,99128.59
2022-11-03T19:15:56.142Z,99126.81
2022-11-03T19:18:24.847Z,99113.81
2022-11-03T19:20:52.576Z,99108.59
2022-11-03T19:23:20.223Z,99113.09
2022-11-03T19:25:49.984Z,99092.47
2022-11-03T19:28:22.668Z,99096.72
2022-11-03T19:30:55.387Z,99086.25
2022-11-03T19:33:27.653Z,99085.31
2022-11-03T19:35:57.849Z,99083.84
2022-11-03T19:38:25.777Z,99071.00
2022-11-03T19:41:11.452Z,99076.03
2022-11-03T19:43:40.891Z,99061.72
2022-11-03T19:46:17.425Z,99060.88
2022-11-03T19:48:45.421Z,99065.06
2022-11-03T19:51:14.024Z,99053.34
2022-11-03T19:53:46.841Z,99051.91
2022-11-03T19:56:15.863Z,99043.22
2022-11-03T19:58:45.727Z,99026.81
2022-11-03T20:01:13.617Z,99028.69
2022-11-03T20:03:41.349Z,99025.00
2022-11-03T20:06:09.434Z,99024.19
2022-11-03T20:08:37.978Z,99016.66
2022-11-03T20:11:07.126Z,99017.72
2022-11-03T20:13:41.504Z,99016.38
2022-11-03T20:16:15.955Z,99015.75
2022-11-03T20:18:44.103Z,99008.63
2022-11-03T20:21:15.376Z,99016.38
2022-11-03T20:23:43.667Z,98998.09
2022-11-03T20:26:14.888Z,99003.53
2022-11-03T20:28:42.787Z,98993.44
2022-11-03T20:31:12.407Z,99006.34
2022-11-03T20:33:42.248Z,99011.47
2022-11-03T20:36:15.700Z,98996.34
2022-11-03T20:38:44.070Z,98995.53
2022-11-03T20:41:15.705Z,98994.84
2022-11-03T20:43:45.586Z,98987.50
2022-11-03T20:46:23.515Z,98972.91
2022-11-03T20:48:55.277Z,98979.47
2022-11-03T20:51:26.036Z,98979.38
2022-11-03T20:53:55.801Z,98977.78
2022-11-03T20:56:26.477Z,98962.84
2022-11-03T20:58:55.273Z,98958.28
2022-11-03T21:01:26.538Z,98958.78
2022-11-03T21:04:00.380Z,98962.25
2022-11-03T21:06:29.874Z,98959.09
2022-11-03T21:08:57.996Z,98974.38
2022-11-03T21:11:30.921Z,98978.78
2022-11-03T21:14:01.365Z,98974.28
2022-11-03T21:16:48.735Z,98980.88
2022-11-03T21:19:37.613Z,98983.69
2022-11-03T21:25:03.328Z,98962.78
2022-11-03T21:27:32.692Z,98965.69
2022-11-03T21:30:00.924Z,98974.03
2022-11-03T21:32:28.563Z,98972.53
2022-11-03T21:34:58.669Z,98965.66
2022-11-03T21:37:26.331Z,98951.75
2022-11-03T21:39:54.116Z,98953.38
2022-11-03T21:42:39.353Z,98985.44
2022-11-03T21:45:08.508Z,99003.66
2022-11-03T21:47:36.614Z,99019.34
2022-11-03T21:50:05.172Z,99026.41
2022-11-03T21:52:33.078Z,99029.75
2022-11-03T21:55:01.578Z,99049.41
2022-11-03T21:57:32.267Z,99057.28
2022-11-03T21:59:59.994Z,99058.31
2022-11-03T22:02:30.077Z,99064.28
2022-11-03T22:04:58.276Z,99078.22
2022-11-03T22:07:27.237Z,99073.72
2022-11-03T22:09:54.901Z,99082.66
2022-11-03T22:12:23.318Z,99076.81
2022-11-03T22:15:08.477Z,99061.34
2022-11-03T22:17:36.117Z,99035.31
2022-11-03T22:20:22.202Z,99038.03
2022-11-03T22:23:08.904Z,99044.97
2022-11-03T22:25:54.166Z,99053.91
2022-11-03T22:28:21.798Z,99068.59
2022-11-03T22:31:07.281Z,99074.63
2022-11-03T22:33:55.752Z,99075.00
2022-11-03T22:36:25.344Z,99078.34
2022-11-03T22:39:11.706Z,99091.72
2022-11-03T22:42:08.292Z,99085.03
2022-11-03T22:44:53.772Z,99082.56
2022-11-03T22:47:21.364Z,99075.47
2022-11-03T22:49:49.060Z,99080.13
2022-11-03T22:52:17.152Z,99102.31
2022-11-03T22:54:45.316Z,99096.19
2022-11-03T22:57:13.245Z,99105.28
2022-11-03T22:59:41.095Z,99095.72
2022-11-03T23:02:09.168Z,99089.88
2022-11-03T23:04:36.989Z,99098.31
2022-11-03T23:07:04.610Z,99116.72
2022-11-03T23:09:32.469Z,99122.69
2022-11-03T23:12:01.436Z,99130.47
2022-11-03T23:14:49.628Z,99123.47
2022-11-03T23:17:17.286Z,99121.00
2022-11-03T23:20:02.699Z,99102.81
2022-11-03T23:22:30.385Z,99115.59
2022-11-03T23:25:00.094Z,99123.59
2022-11-03T23:27:29.143Z,99126.09
2022-11-03T23:29:56.872Z,99132.31
2022-11-03T23:32:24.555Z,99131.41
2022-11-03T23:34:52.197Z,99132.03
2022-11-03T23:37:19.833Z,99140.88
2022-11-03T23:39:47.478Z,99147.91
2022-11-03T23:42:15.097Z,99142.00
2022-11-03T23:44:58.009Z,99147.91
2022-11-03T23:47:43.095Z,99162.69
2022-11-03T23:50:10.691Z,99167.78
2022-11-03T23:52:38.522Z,99173.06
2022-11-03T23:55:07.345Z,99184.31
2022-11-03T23:57:52.799Z,99191.84
